sensor_id;sensor_type;location;lat;lon;timestamp;P1;durP1;ratioP1;P2;durP2;ratioP2
29362;SDS011;16349;53.672;10.014;2023-08-01T00:00:28;0.83;;;0.77;;
29362;SDS011;16349;53.672;10.014;2023-08-01T00:02:56;1.90;;;1.27;;
29362;SDS011;16349;53.672;10.014;2023-08-01T00:05:24;1.57;;;1.47;;
29362;SDS011;16349;53.672;10.014;2023-08-01T00:07:52;1.23;;;1.13;;
29362;SDS011;16349;53.672;10.014;2023-08-01T00:10:19;1.30;;;1.20;;
29362;SDS011;16349;53.672;10.014;2023-08-01T00:12:46;1.53;;;1.43;;
29362;SDS011;16349;53.672;10.014;2023-08-01T00:15:13;2.30;;;1.60;;
29362;SDS011;16349;53.672;10.014;2023-08-01T00:17:40;1.60;;;1.50;;
29362;SDS011;16349;53.672;10.014;2023-08-01T00:20:07;1.80;;;1.70;;
29362;SDS011;16349;53.672;10.014;2023-08-01T00:22:35;2.20;;;1.93;;
29362;SDS011;16349;53.672;10.014;2023-08-01T00:25:03;2.50;;;2.30;;
29362;SDS011;16349;53.672;10.014;2023-08-01T00:27:31;1.90;;;1.80;;
29362;SDS011;16349;53.672;10.014;2023-08-01T00:29:58;2.00;;;1.90;;
29362;SDS011;16349;53.672;10.014;2023-08-01T00:32:25;3.03;;;2.00;;
29362;SDS011;16349;53.672;10.014;2023-08-01T00:34:51;2.03;;;1.83;;
29362;SDS011;16349;53.672;10.014;2023-08-01T00:37:18;3.00;;;2.40;;
29362;SDS011;16349;53.672;10.014;2023-08-01T00:39:45;2.10;;;1.90;;
29362;SDS011;16349;53.672;10.014;2023-08-01T00:42:13;2.50;;;1.60;;
29362;SDS011;16349;53.672;10.014;2023-08-01T00:44:41;2.10;;;2.00;;
29362;SDS011;16349;53.672;10.014;2023-08-01T00:47:08;1.67;;;1.57;;
29362;SDS011;16349;53.672;10.014;2023-08-01T00:49:35;1.47;;;1.37;;
29362;SDS011;16349;53.672;10.014;2023-08-01T00:52:03;1.50;;;1.40;;
29362;SDS011;16349;53.672;10.014;2023-08-01T00:54:30;1.53;;;1.43;;
29362;SDS011;16349;53.672;10.014;2023-08-01T00:57:01;2.13;;;1.50;;
29362;SDS011;16349;53.672;10.014;2023-08-01T00:59:29;1.57;;;1.47;;
29362;SDS011;16349;53.672;10.014;2023-08-01T01:01:58;1.20;;;1.20;;
29362;SDS011;16349;53.672;10.014;2023-08-01T01:04:26;1.50;;;1.40;;
29362;SDS011;16349;53.672;10.014;2023-08-01T01:06:55;1.47;;;1.27;;
29362;SDS011;16349;53.672;10.014;2023-08-01T01:09:27;1.93;;;1.30;;
29362;SDS011;16349;53.672;10.014;2023-08-01T01:11:56;1.77;;;1.13;;
29362;SDS011;16349;53.672;10.014;2023-08-01T01:14:23;2.03;;;1.53;;
29362;SDS011;16349;53.672;10.014;2023-08-01T01:16:53;1.60;;;1.50;;
29362;SDS011;16349;53.672;10.014;2023-08-01T01:19:20;2.63;;;1.30;;
29362;SDS011;16349;53.672;10.014;2023-08-01T01:21:48;1.10;;;1.00;;
29362;SDS011;16349;53.672;10.014;2023-08-01T01:24:16;2.23;;;1.40;;
29362;SDS011;16349;53.672;10.014;2023-08-01T01:26:45;1.63;;;1.53;;
29362;SDS011;16349;53.672;10.014;2023-08-01T01:29:13;2.50;;;1.50;;
29362;SDS011;16349;53.672;10.014;2023-08-01T01:31:41;1.63;;;1.53;;
29362;SDS011;16349;53.672;10.014;2023-08-01T01:34:09;1.53;;;1.43;;
29362;SDS011;16349;53.672;10.014;2023-08-01T01:36:36;1.80;;;1.70;;
29362;SDS011;16349;53.672;10.014;2023-08-01T01:39:06;2.67;;;1.90;;
29362;SDS011;16349;53.672;10.014;2023-08-01T01:41:33;2.00;;;1.90;;
29362;SDS011;16349;53.672;10.014;2023-08-01T01:44:00;2.13;;;2.03;;
29362;SDS011;16349;53.672;10.014;2023-08-01T01:46:27;2.23;;;2.03;;
29362;SDS011;16349;53.672;10.014;2023-08-01T01:48:54;2.03;;;1.83;;
29362;SDS011;16349;53.672;10.014;2023-08-01T01:51:22;2.90;;;2.60;;
29362;SDS011;16349;53.672;10.014;2023-08-01T01:53:50;3.73;;;2.57;;
29362;SDS011;16349;53.672;10.014;2023-08-01T01:56:18;2.83;;;2.63;;
29362;SDS011;16349;53.672;10.014;2023-08-01T01:58:45;2.60;;;2.40;;
29362;SDS011;16349;53.672;10.014;2023-08-01T02:01:12;3.00;;;2.80;;
29362;SDS011;16349;53.672;10.014;2023-08-01T02:03:39;3.60;;;3.30;;
29362;SDS011;16349;53.672;10.014;2023-08-01T02:06:06;3.80;;;3.50;;
29362;SDS011;16349;53.672;10.014;2023-08-01T02:08:33;5.07;;;3.93;;
29362;SDS011;16349;53.672;10.014;2023-08-01T02:11:00;4.07;;;3.67;;
29362;SDS011;16349;53.672;10.014;2023-08-01T02:13:29;4.37;;;3.97;;
29362;SDS011;16349;53.672;10.014;2023-08-01T02:15:57;4.33;;;3.97;;
29362;SDS011;16349;53.672;10.014;2023-08-01T02:18:24;6.10;;;4.30;;
29362;SDS011;16349;53.672;10.014;2023-08-01T02:20:52;5.53;;;5.03;;
29362;SDS011;16349;53.672;10.014;2023-08-01T02:23:19;5.93;;;5.40;;
29362;SDS011;16349;53.672;10.014;2023-08-01T02:25:46;5.50;;;5.00;;
29362;SDS011;16349;53.672;10.014;2023-08-01T02:28:12;5.90;;;5.07;;
29362;SDS011;16349;53.672;10.014;2023-08-01T02:30:41;5.70;;;5.10;;
29362;SDS011;16349;53.672;10.014;2023-08-01T02:33:08;9.57;;;6.47;;
29362;SDS011;16349;53.672;10.014;2023-08-01T02:35:35;8.33;;;6.53;;
29362;SDS011;16349;53.672;10.014;2023-08-01T02:38:03;7.20;;;6.47;;
29362;SDS011;16349;53.672;10.014;2023-08-01T02:40:30;7.87;;;7.10;;
29362;SDS011;16349;53.672;10.014;2023-08-01T02:42:57;7.07;;;6.47;;
29362;SDS011;16349;53.672;10.014;2023-08-01T02:45:23;7.80;;;7.07;;
29362;SDS011;16349;53.672;10.014;2023-08-01T02:47:52;7.77;;;7.07;;
29362;SDS011;16349;53.672;10.014;2023-08-01T02:50:18;8.30;;;7.43;;
29362;SDS011;16349;53.672;10.014;2023-08-01T02:52:45;8.07;;;7.37;;
29362;SDS011;16349;53.672;10.014;2023-08-01T02:55:12;8.23;;;7.37;;
29362;SDS011;16349;53.672;10.014;2023-08-01T02:57:39;10.50;;;8.00;;
29362;SDS011;16349;53.672;10.014;2023-08-01T03:00:06;10.27;;;8.23;;
29362;SDS011;16349;53.672;10.014;2023-08-01T03:02:36;9.43;;;7.90;;
29362;SDS011;16349;53.672;10.014;2023-08-01T03:05:06;8.50;;;7.77;;
29362;SDS011;16349;53.672;10.014;2023-08-01T03:07:34;8.90;;;8.10;;
29362;SDS011;16349;53.672;10.014;2023-08-01T03:10:01;10.50;;;8.53;;
29362;SDS011;16349;53.672;10.014;2023-08-01T03:12:28;9.43;;;8.53;;
29362;SDS011;16349;53.672;10.014;2023-08-01T03:14:56;11.00;;;8.53;;
29362;SDS011;16349;53.672;10.014;2023-08-01T03:17:22;9.50;;;8.53;;
29362;SDS011;16349;53.672;10.014;2023-08-01T03:19:49;10.33;;;9.20;;
29362;SDS011;16349;53.672;10.014;2023-08-01T03:22:18;10.60;;;8.97;;
29362;SDS011;16349;53.672;10.014;2023-08-01T03:24:45;10.30;;;9.30;;
29362;SDS011;16349;53.672;10.014;2023-08-01T03:27:11;10.50;;;9.13;;
29362;SDS011;16349;53.672;10.014;2023-08-01T03:29:38;10.80;;;9.70;;
29362;SDS011;16349;53.672;10.014;2023-08-01T03:32:05;11.73;;;9.40;;
29362;SDS011;16349;53.672;10.014;2023-08-01T03:34:32;11.77;;;9.70;;
29362;SDS011;16349;53.672;10.014;2023-08-01T03:36:59;13.23;;;9.47;;
29362;SDS011;16349;53.672;10.014;2023-08-01T03:39:28;10.67;;;9.47;;
29362;SDS011;16349;53.672;10.014;2023-08-01T03:41:54;13.40;;;9.77;;
29362;SDS011;16349;53.672;10.014;2023-08-01T03:44:21;12.07;;;10.53;;
29362;SDS011;16349;53.672;10.014;2023-08-01T03:46:48;11.33;;;10.23;;
29362;SDS011;16349;53.672;10.014;2023-08-01T03:49:15;12.07;;;9.67;;
29362;SDS011;16349;53.672;10.014;2023-08-01T03:51:43;13.43;;;10.60;;
29362;SDS011;16349;53.672;10.014;2023-08-01T03:54:10;12.97;;;11.07;;
29362;SDS011;16349;53.672;10.014;2023-08-01T03:56:39;13.40;;;10.53;;
29362;SDS011;16349;53.672;10.014;2023-08-01T03:59:08;12.13;;;10.87;;
29362;SDS011;16349;53.672;10.014;2023-08-01T04:01:35;11.63;;;10.53;;
29362;SDS011;16349;53.672;10.014;2023-08-01T04:04:02;14.67;;;11.10;;
29362;SDS011;16349;53.672;10.014;2023-08-01T04:06:29;11.77;;;9.57;;
29362;SDS011;16349;53.672;10.014;2023-08-01T04:08:56;10.47;;;9.47;;
29362;SDS011;16349;53.672;10.014;2023-08-01T04:11:25;11.20;;;9.23;;
29362;SDS011;16349;53.672;10.014;2023-08-01T04:13:53;11.00;;;9.73;;
29362;SDS011;16349;53.672;10.014;2023-08-01T04:16:20;11.97;;;10.83;;
29362;SDS011;16349;53.672;10.014;2023-08-01T04:18:47;15.90;;;10.77;;
29362;SDS011;16349;53.672;10.014;2023-08-01T04:21:14;13.40;;;10.20;;
29362;SDS011;16349;53.672;10.014;2023-08-01T04:23:41;12.27;;;10.63;;
29362;SDS011;16349;53.672;10.014;2023-08-01T04:26:08;13.47;;;9.50;;
29362;SDS011;16349;53.672;10.014;2023-08-01T04:28:35;11.10;;;9.90;;
29362;SDS011;16349;53.672;10.014;2023-08-01T04:31:03;13.33;;;10.37;;
29362;SDS011;16349;53.672;10.014;2023-08-01T04:33:30;11.47;;;10.30;;
29362;SDS011;16349;53.672;10.014;2023-08-01T04:35:57;13.03;;;10.60;;
29362;SDS011;16349;53.672;10.014;2023-08-01T04:38:24;12.30;;;10.27;;
29362;SDS011;16349;53.672;10.014;2023-08-01T04:40:51;14.10;;;11.93;;
29362;SDS011;16349;53.672;10.014;2023-08-01T04:43:17;17.57;;;10.60;;
29362;SDS011;16349;53.672;10.014;2023-08-01T04:45:45;12.93;;;10.10;;
29362;SDS011;16349;53.672;10.014;2023-08-01T04:48:13;14.93;;;11.10;;
29362;SDS011;16349;53.672;10.014;2023-08-01T04:50:40;13.07;;;11.20;;
29362;SDS011;16349;53.672;10.014;2023-08-01T04:53:06;15.37;;;10.10;;
29362;SDS011;16349;53.672;10.014;2023-08-01T04:55:33;14.07;;;11.00;;
29362;SDS011;16349;53.672;10.014;2023-08-01T04:58:00;11.53;;;10.33;;
29362;SDS011;16349;53.672;10.014;2023-08-01T05:00:27;13.57;;;10.47;;
29362;SDS011;16349;53.672;10.014;2023-08-01T05:02:54;13.17;;;10.33;;
29362;SDS011;16349;53.672;10.014;2023-08-01T05:05:22;11.40;;;10.23;;
29362;SDS011;16349;53.672;10.014;2023-08-01T05:07:49;11.53;;;9.57;;
29362;SDS011;16349;53.672;10.014;2023-08-01T05:10:16;12.10;;;10.30;;
29362;SDS011;16349;53.672;10.014;2023-08-01T05:12:43;12.97;;;9.53;;
29362;SDS011;16349;53.672;10.014;2023-08-01T05:15:09;11.13;;;9.93;;
29362;SDS011;16349;53.672;10.014;2023-08-01T05:17:38;12.00;;;10.17;;
29362;SDS011;16349;53.672;10.014;2023-08-01T05:20:05;11.53;;;10.20;;
29362;SDS011;16349;53.672;10.014;2023-08-01T05:22:34;10.40;;;9.33;;
29362;SDS011;16349;53.672;10.014;2023-08-01T05:25:01;9.67;;;8.77;;
29362;SDS011;16349;53.672;10.014;2023-08-01T05:27:30;10.53;;;9.37;;
29362;SDS011;16349;53.672;10.014;2023-08-01T05:29:56;12.73;;;9.30;;
29362;SDS011;16349;53.672;10.014;2023-08-01T05:32:23;11.50;;;10.17;;
29362;SDS011;16349;53.672;10.014;2023-08-01T05:34:50;16.20;;;10.83;;
29362;SDS011;16349;53.672;10.014;2023-08-01T05:37:17;10.90;;;9.47;;
29362;SDS011;16349;53.672;10.014;2023-08-01T05:39:45;11.63;;;8.70;;
29362;SDS011;16349;53.672;10.014;2023-08-01T05:42:12;11.33;;;8.43;;
29362;SDS011;16349;53.672;10.014;2023-08-01T05:44:39;10.87;;;8.90;;
29362;SDS011;16349;53.672;10.014;2023-08-01T05:47:06;9.90;;;8.77;;
29362;SDS011;16349;53.672;10.014;2023-08-01T05:49:33;9.63;;;8.63;;
29362;SDS011;16349;53.672;10.014;2023-08-01T05:51:59;10.20;;;9.20;;
29362;SDS011;16349;53.672;10.014;2023-08-01T05:54:26;10.67;;;9.17;;
29362;SDS011;16349;53.672;10.014;2023-08-01T05:56:54;10.40;;;8.23;;
29362;SDS011;16349;53.672;10.014;2023-08-01T05:59:21;10.70;;;8.73;;
29362;SDS011;16349;53.672;10.014;2023-08-01T06:01:48;10.83;;;8.57;;
29362;SDS011;16349;53.672;10.014;2023-08-01T06:04:15;9.67;;;8.77;;
29362;SDS011;16349;53.672;10.014;2023-08-01T06:06:42;10.53;;;9.03;;
29362;SDS011;16349;53.672;10.014;2023-08-01T06:09:09;9.97;;;8.47;;
29362;SDS011;16349;53.672;10.014;2023-08-01T06:11:35;11.60;;;7.33;;
29362;SDS011;16349;53.672;10.014;2023-08-01T06:14:04;8.00;;;7.20;;
29362;SDS011;16349;53.672;10.014;2023-08-01T06:16:31;11.60;;;7.37;;
29362;SDS011;16349;53.672;10.014;2023-08-01T06:18:57;9.47;;;7.17;;
29362;SDS011;16349;53.672;10.014;2023-08-01T06:21:24;8.70;;;7.77;;
29362;SDS011;16349;53.672;10.014;2023-08-01T06:23:52;11.33;;;7.50;;
29362;SDS011;16349;53.672;10.014;2023-08-01T06:26:18;10.67;;;7.37;;
29362;SDS011;16349;53.672;10.014;2023-08-01T06:28:45;10.50;;;7.33;;
29362;SDS011;16349;53.672;10.014;2023-08-01T06:31:14;9.00;;;6.97;;
29362;SDS011;16349;53.672;10.014;2023-08-01T06:33:41;10.03;;;6.63;;
29362;SDS011;16349;53.672;10.014;2023-08-01T06:36:07;7.00;;;6.27;;
29362;SDS011;16349;53.672;10.014;2023-08-01T06:38:34;6.63;;;6.03;;
29362;SDS011;16349;53.672;10.014;2023-08-01T06:41:01;10.47;;;6.70;;
29362;SDS011;16349;53.672;10.014;2023-08-01T06:43:28;10.83;;;6.17;;
29362;SDS011;16349;53.672;10.014;2023-08-01T06:45:55;6.20;;;5.60;;
29362;SDS011;16349;53.672;10.014;2023-08-01T06:48:23;7.03;;;5.47;;
29362;SDS011;16349;53.672;10.014;2023-08-01T06:50:50;6.43;;;5.37;;
29362;SDS011;16349;53.672;10.014;2023-08-01T06:53:17;8.23;;;5.10;;
29362;SDS011;16349;53.672;10.014;2023-08-01T06:55:44;6.80;;;5.00;;
29362;SDS011;16349;53.672;10.014;2023-08-01T06:58:11;7.13;;;4.67;;
29362;SDS011;16349;53.672;10.014;2023-08-01T07:00:38;6.47;;;4.47;;
29362;SDS011;16349;53.672;10.014;2023-08-01T07:03:04;4.83;;;3.53;;
29362;SDS011;16349;53.672;10.014;2023-08-01T07:05:33;5.00;;;3.33;;
29362;SDS011;16349;53.672;10.014;2023-08-01T07:07:59;5.27;;;3.90;;
29362;SDS011;16349;53.672;10.014;2023-08-01T07:10:26;5.97;;;3.80;;
29362;SDS011;16349;53.672;10.014;2023-08-01T07:12:53;6.37;;;3.67;;
29362;SDS011;16349;53.672;10.014;2023-08-01T07:15:20;7.77;;;3.83;;
29362;SDS011;16349;53.672;10.014;2023-08-01T07:17:47;6.67;;;4.00;;
29362;SDS011;16349;53.672;10.014;2023-08-01T07:20:14;6.40;;;4.17;;
29362;SDS011;16349;53.672;10.014;2023-08-01T07:22:42;4.83;;;3.77;;
29362;SDS011;16349;53.672;10.014;2023-08-01T07:25:09;3.50;;;3.23;;
29362;SDS011;16349;53.672;10.014;2023-08-01T07:27:37;4.63;;;3.70;;
29362;SDS011;16349;53.672;10.014;2023-08-01T07:30:04;5.23;;;3.40;;
29362;SDS011;16349;53.672;10.014;2023-08-01T07:32:31;10.03;;;3.70;;
29362;SDS011;16349;53.672;10.014;2023-08-01T07:35:00;6.43;;;3.23;;
29362;SDS011;16349;53.672;10.014;2023-08-01T07:37:27;5.70;;;3.37;;
29362;SDS011;16349;53.672;10.014;2023-08-01T07:39:55;5.07;;;3.47;;
29362;SDS011;16349;53.672;10.014;2023-08-01T07:42:22;3.83;;;3.30;;
29362;SDS011;16349;53.672;10.014;2023-08-01T07:44:49;4.73;;;3.17;;
29362;SDS011;16349;53.672;10.014;2023-08-01T07:47:16;5.50;;;3.53;;
29362;SDS011;16349;53.672;10.014;2023-08-01T07:49:43;7.20;;;3.50;;
29362;SDS011;16349;53.672;10.014;2023-08-01T07:52:10;4.00;;;3.40;;
29362;SDS011;16349;53.672;10.014;2023-08-01T07:54:37;3.67;;;3.03;;
29362;SDS011;16349;53.672;10.014;2023-08-01T07:57:05;7.13;;;3.57;;
29362;SDS011;16349;53.672;10.014;2023-08-01T07:59:33;5.30;;;3.10;;
29362;SDS011;16349;53.672;10.014;2023-08-01T08:02:00;6.97;;;3.53;;
29362;SDS011;16349;53.672;10.014;2023-08-01T08:04:27;7.20;;;3.50;;
29362;SDS011;16349;53.672;10.014;2023-08-01T08:06:54;4.67;;;3.83;;
29362;SDS011;16349;53.672;10.014;2023-08-01T08:09:24;5.53;;;3.40;;
29362;SDS011;16349;53.672;10.014;2023-08-01T08:11:51;3.20;;;2.90;;
29362;SDS011;16349;53.672;10.014;2023-08-01T08:14:20;4.00;;;3.50;;
29362;SDS011;16349;53.672;10.014;2023-08-01T08:16:48;7.13;;;3.80;;
29362;SDS011;16349;53.672;10.014;2023-08-01T08:19:15;4.37;;;3.00;;
29362;SDS011;16349;53.672;10.014;2023-08-01T08:21:42;6.97;;;3.03;;
29362;SDS011;16349;53.672;10.014;2023-08-01T08:24:08;4.40;;;3.17;;
29362;SDS011;16349;53.672;10.014;2023-08-01T08:26:36;4.20;;;3.03;;
29362;SDS011;16349;53.672;10.014;2023-08-01T08:29:04;4.57;;;2.93;;
29362;SDS011;16349;53.672;10.014;2023-08-01T08:31:33;6.70;;;3.10;;
29362;SDS011;16349;53.672;10.014;2023-08-01T08:33:59;4.13;;;3.00;;
29362;SDS011;16349;53.672;10.014;2023-08-01T08:36:26;6.03;;;3.03;;
29362;SDS011;16349;53.672;10.014;2023-08-01T08:38:53;4.33;;;2.90;;
29362;SDS011;16349;53.672;10.014;2023-08-01T08:41:21;4.20;;;3.00;;
29362;SDS011;16349;53.672;10.014;2023-08-01T08:43:49;2.70;;;2.43;;
29362;SDS011;16349;53.672;10.014;2023-08-01T08:46:20;6.30;;;2.80;;
29362;SDS011;16349;53.672;10.014;2023-08-01T08:48:52;3.73;;;2.70;;
29362;SDS011;16349;53.672;10.014;2023-08-01T08:51:20;3.60;;;2.97;;
29362;SDS011;16349;53.672;10.014;2023-08-01T08:53:48;3.47;;;3.00;;
29362;SDS011;16349;53.672;10.014;2023-08-01T08:56:17;6.13;;;2.90;;
29362;SDS011;16349;53.672;10.014;2023-08-01T08:58:45;5.33;;;3.00;;
29362;SDS011;16349;53.672;10.014;2023-08-01T09:01:13;6.43;;;3.10;;
29362;SDS011;16349;53.672;10.014;2023-08-01T09:03:40;4.43;;;2.83;;
29362;SDS011;16349;53.672;10.014;2023-08-01T09:06:11;4.27;;;2.70;;
29362;SDS011;16349;53.672;10.014;2023-08-01T09:08:40;4.63;;;3.00;;
29362;SDS011;16349;53.672;10.014;2023-08-01T09:11:14;5.80;;;2.67;;
29362;SDS011;16349;53.672;10.014;2023-08-01T09:13:40;2.00;;;1.77;;
29362;SDS011;16349;53.672;10.014;2023-08-01T09:16:07;2.80;;;1.53;;
29362;SDS011;16349;53.672;10.014;2023-08-01T09:18:45;3.00;;;2.03;;
29362;SDS011;16349;53.672;10.014;2023-08-01T09:21:14;3.10;;;2.10;;
29362;SDS011;16349;53.672;10.014;2023-08-01T09:23:44;2.87;;;2.03;;
29362;SDS011;16349;53.672;10.014;2023-08-01T09:26:12;4.30;;;2.27;;
29362;SDS011;16349;53.672;10.014;2023-08-01T09:28:40;3.27;;;2.87;;
29362;SDS011;16349;53.672;10.014;2023-08-01T09:31:07;5.03;;;2.80;;
29362;SDS011;16349;53.672;10.014;2023-08-01T09:33:38;5.33;;;3.40;;
29362;SDS011;16349;53.672;10.014;2023-08-01T09:36:06;4.17;;;2.43;;
29362;SDS011;16349;53.672;10.014;2023-08-01T09:38:35;3.07;;;2.67;;
29362;SDS011;16349;53.672;10.014;2023-08-01T09:41:03;2.90;;;2.47;;
29362;SDS011;16349;53.672;10.014;2023-08-01T09:43:33;4.20;;;2.83;;
29362;SDS011;16349;53.672;10.014;2023-08-01T09:46:01;4.60;;;3.03;;
29362;SDS011;16349;53.672;10.014;2023-08-01T09:48:28;5.77;;;3.10;;
29362;SDS011;16349;53.672;10.014;2023-08-01T09:51:06;4.03;;;3.07;;
29362;SDS011;16349;53.672;10.014;2023-08-01T09:53:36;6.57;;;5.67;;
29362;SDS011;16349;53.672;10.014;2023-08-01T09:56:13;2.80;;;2.60;;
29362;SDS011;16349;53.672;10.014;2023-08-01T09:58:42;3.90;;;3.00;;
29362;SDS011;16349;53.672;10.014;2023-08-01T10:01:11;5.30;;;3.70;;
29362;SDS011;16349;53.672;10.014;2023-08-01T10:03:40;2.80;;;2.60;;
29362;SDS011;16349;53.672;10.014;2023-08-01T10:06:10;3.23;;;2.50;;
29362;SDS011;16349;53.672;10.014;2023-08-01T10:08:41;3.00;;;2.80;;
29362;SDS011;16349;53.672;10.014;2023-08-01T10:11:09;4.87;;;2.50;;
29362;SDS011;16349;53.672;10.014;2023-08-01T10:13:36;2.43;;;2.23;;
29362;SDS011;16349;53.672;10.014;2023-08-01T10:16:03;2.43;;;1.60;;
29362;SDS011;16349;53.672;10.014;2023-08-01T10:18:31;3.77;;;1.90;;
29362;SDS011;16349;53.672;10.014;2023-08-01T10:20:59;2.20;;;1.70;;
29362;SDS011;16349;53.672;10.014;2023-08-01T10:23:27;5.03;;;1.70;;
29362;SDS011;16349;53.672;10.014;2023-08-01T10:25:56;2.43;;;1.70;;
29362;SDS011;16349;53.672;10.014;2023-08-01T10:28:32;3.30;;;1.93;;
29362;SDS011;16349;53.672;10.014;2023-08-01T10:31:08;3.07;;;1.40;;
29362;SDS011;16349;53.672;10.014;2023-08-01T10:33:36;1.63;;;1.30;;
29362;SDS011;16349;53.672;10.014;2023-08-01T10:36:12;1.57;;;1.27;;
29362;SDS011;16349;53.672;10.014;2023-08-01T10:38:44;2.17;;;1.30;;
29362;SDS011;16349;53.672;10.014;2023-08-01T10:41:19;2.57;;;1.00;;
29362;SDS011;16349;53.672;10.014;2023-08-01T10:43:48;2.03;;;1.20;;
29362;SDS011;16349;53.672;10.014;2023-08-01T10:46:15;1.50;;;1.33;;
29362;SDS011;16349;53.672;10.014;2023-08-01T10:48:48;1.33;;;1.20;;
29362;SDS011;16349;53.672;10.014;2023-08-01T10:51:16;3.83;;;1.50;;
29362;SDS011;16349;53.672;10.014;2023-08-01T10:53:42;1.03;;;1.00;;
29362;SDS011;16349;53.672;10.014;2023-08-01T10:56:15;3.67;;;0.97;;
29362;SDS011;16349;53.672;10.014;2023-08-01T10:58:44;2.47;;;1.07;;
29362;SDS011;16349;53.672;10.014;2023-08-01T11:01:12;2.27;;;1.00;;
29362;SDS011;16349;53.672;10.014;2023-08-01T11:03:39;1.43;;;1.00;;
29362;SDS011;16349;53.672;10.014;2023-08-01T11:06:07;1.70;;;0.97;;
29362;SDS011;16349;53.672;10.014;2023-08-01T11:08:34;0.70;;;0.70;;
29362;SDS011;16349;53.672;10.014;2023-08-01T11:11:03;0.80;;;0.80;;
29362;SDS011;16349;53.672;10.014;2023-08-01T11:13:31;1.80;;;0.80;;
29362;SDS011;16349;53.672;10.014;2023-08-01T11:16:01;2.23;;;0.50;;
29362;SDS011;16349;53.672;10.014;2023-08-01T11:18:30;0.53;;;0.53;;
29362;SDS011;16349;53.672;10.014;2023-08-01T11:20:56;1.97;;;0.60;;
29362;SDS011;16349;53.672;10.014;2023-08-01T11:23:27;0.93;;;0.80;;
29362;SDS011;16349;53.672;10.014;2023-08-01T11:25:54;1.13;;;0.60;;
29362;SDS011;16349;53.672;10.014;2023-08-01T11:28:21;0.63;;;0.60;;
29362;SDS011;16349;53.672;10.014;2023-08-01T11:30:49;1.17;;;0.60;;
29362;SDS011;16349;53.672;10.014;2023-08-01T11:33:18;0.33;;;0.33;;
29362;SDS011;16349;53.672;10.014;2023-08-01T11:35:49;0.23;;;0.23;;
29362;SDS011;16349;53.672;10.014;2023-08-01T11:38:17;0.87;;;0.40;;
29362;SDS011;16349;53.672;10.014;2023-08-01T11:40:44;1.73;;;0.50;;
29362;SDS011;16349;53.672;10.014;2023-08-01T11:43:14;2.27;;;0.37;;
29362;SDS011;16349;53.672;10.014;2023-08-01T11:45:50;0.50;;;0.40;;
29362;SDS011;16349;53.672;10.014;2023-08-01T11:48:20;1.07;;;0.33;;
29362;SDS011;16349;53.672;10.014;2023-08-01T11:50:48;0.50;;;0.30;;
29362;SDS011;16349;53.672;10.014;2023-08-01T11:53:18;1.23;;;0.30;;
29362;SDS011;16349;53.672;10.014;2023-08-01T11:55:45;0.30;;;0.30;;
29362;SDS011;16349;53.672;10.014;2023-08-01T11:58:12;0.87;;;0.43;;
29362;SDS011;16349;53.672;10.014;2023-08-01T12:00:40;1.37;;;0.30;;
29362;SDS011;16349;53.672;10.014;2023-08-01T12:03:08;0.77;;;0.40;;
29362;SDS011;16349;53.672;10.014;2023-08-01T12:05:39;1.03;;;0.40;;
29362;SDS011;16349;53.672;10.014;2023-08-01T12:08:11;0.30;;;0.30;;
29362;SDS011;16349;53.672;10.014;2023-08-01T12:10:39;0.30;;;0.30;;
29362;SDS011;16349;53.672;10.014;2023-08-01T12:13:07;0.70;;;0.30;;
29362;SDS011;16349;53.672;10.014;2023-08-01T12:15:45;0.60;;;0.40;;
29362;SDS011;16349;53.672;10.014;2023-08-01T12:18:18;0.87;;;0.60;;
29362;SDS011;16349;53.672;10.014;2023-08-01T12:20:47;1.03;;;0.43;;
29362;SDS011;16349;53.672;10.014;2023-08-01T12:23:14;1.10;;;0.47;;
29362;SDS011;16349;53.672;10.014;2023-08-01T12:25:41;0.80;;;0.67;;
29362;SDS011;16349;53.672;10.014;2023-08-01T12:28:08;2.07;;;0.70;;
29362;SDS011;16349;53.672;10.014;2023-08-01T12:30:35;1.23;;;0.60;;
29362;SDS011;16349;53.672;10.014;2023-08-01T12:33:01;1.00;;;0.57;;
29362;SDS011;16349;53.672;10.014;2023-08-01T12:35:28;0.50;;;0.40;;
29362;SDS011;16349;53.672;10.014;2023-08-01T12:37:57;1.43;;;0.50;;
29362;SDS011;16349;53.672;10.014;2023-08-01T12:40:23;1.40;;;0.53;;
29362;SDS011;16349;53.672;10.014;2023-08-01T12:42:50;1.37;;;0.50;;
29362;SDS011;16349;53.672;10.014;2023-08-01T12:45:17;1.43;;;0.50;;
29362;SDS011;16349;53.672;10.014;2023-08-01T12:47:44;1.60;;;0.60;;
29362;SDS011;16349;53.672;10.014;2023-08-01T12:50:12;2.30;;;0.73;;
29362;SDS011;16349;53.672;10.014;2023-08-01T12:52:38;0.73;;;0.50;;
29362;SDS011;16349;53.672;10.014;2023-08-01T12:55:07;0.80;;;0.77;;
29362;SDS011;16349;53.672;10.014;2023-08-01T12:57:34;0.60;;;0.60;;
29362;SDS011;16349;53.672;10.014;2023-08-01T13:00:01;1.73;;;0.80;;
29362;SDS011;16349;53.672;10.014;2023-08-01T13:02:28;2.70;;;0.80;;
29362;SDS011;16349;53.672;10.014;2023-08-01T13:04:55;1.40;;;0.70;;
29362;SDS011;16349;53.672;10.014;2023-08-01T13:07:22;1.30;;;0.70;;
29362;SDS011;16349;53.672;10.014;2023-08-01T13:09:49;0.70;;;0.70;;
29362;SDS011;16349;53.672;10.014;2023-08-01T13:12:17;0.63;;;0.57;;
29362;SDS011;16349;53.672;10.014;2023-08-01T13:14:44;0.93;;;0.60;;
29362;SDS011;16349;53.672;10.014;2023-08-01T13:17:10;0.50;;;0.50;;
29362;SDS011;16349;53.672;10.014;2023-08-01T13:19:37;1.80;;;0.80;;
29362;SDS011;16349;53.672;10.014;2023-08-01T13:22:05;2.27;;;0.70;;
29362;SDS011;16349;53.672;10.014;2023-08-01T13:24:32;1.00;;;0.57;;
29362;SDS011;16349;53.672;10.014;2023-08-01T13:26:59;1.80;;;0.70;;
29362;SDS011;16349;53.672;10.014;2023-08-01T13:29:27;0.87;;;0.60;;
29362;SDS011;16349;53.672;10.014;2023-08-01T13:31:54;1.40;;;0.60;;
29362;SDS011;16349;53.672;10.014;2023-08-01T13:34:20;1.03;;;0.50;;
29362;SDS011;16349;53.672;10.014;2023-08-01T13:36:49;1.70;;;0.57;;
29362;SDS011;16349;53.672;10.014;2023-08-01T13:39:16;1.60;;;0.70;;
29362;SDS011;16349;53.672;10.014;2023-08-01T13:41:42;1.60;;;0.40;;
29362;SDS011;16349;53.672;10.014;2023-08-01T13:44:09;0.50;;;0.50;;
29362;SDS011;16349;53.672;10.014;2023-08-01T13:46:37;0.60;;;0.60;;
29362;SDS011;16349;53.672;10.014;2023-08-01T13:49:04;2.00;;;0.50;;
29362;SDS011;16349;53.672;10.014;2023-08-01T13:51:31;1.00;;;0.70;;
29362;SDS011;16349;53.672;10.014;2023-08-01T13:53:58;0.50;;;0.50;;
29362;SDS011;16349;53.672;10.014;2023-08-01T13:56:25;1.50;;;0.70;;
29362;SDS011;16349;53.672;10.014;2023-08-01T13:58:52;0.60;;;0.60;;
29362;SDS011;16349;53.672;10.014;2023-08-01T14:01:19;0.73;;;0.60;;
29362;SDS011;16349;53.672;10.014;2023-08-01T14:03:47;0.60;;;0.60;;
29362;SDS011;16349;53.672;10.014;2023-08-01T14:06:14;0.80;;;0.40;;
29362;SDS011;16349;53.672;10.014;2023-08-01T14:08:41;1.00;;;0.90;;
29362;SDS011;16349;53.672;10.014;2023-08-01T14:11:09;1.00;;;0.87;;
29362;SDS011;16349;53.672;10.014;2023-08-01T14:13:36;2.27;;;1.03;;
29362;SDS011;16349;53.672;10.014;2023-08-01T14:16:03;3.17;;;1.00;;
29362;SDS011;16349;53.672;10.014;2023-08-01T14:18:30;0.70;;;0.70;;
29362;SDS011;16349;53.672;10.014;2023-08-01T14:21:00;1.30;;;0.70;;
29362;SDS011;16349;53.672;10.014;2023-08-01T14:23:27;0.90;;;0.90;;
29362;SDS011;16349;53.672;10.014;2023-08-01T14:25:54;2.40;;;1.20;;
29362;SDS011;16349;53.672;10.014;2023-08-01T14:28:23;0.50;;;0.40;;
29362;SDS011;16349;53.672;10.014;2023-08-01T14:30:50;1.40;;;0.40;;
29362;SDS011;16349;53.672;10.014;2023-08-01T14:33:17;0.60;;;0.43;;